createdAt,value
2023-01-05T00:01:12.385Z,11.23
2023-01-05T00:03:34.504Z,5.53
2023-01-05T00:06:04.226Z,4.50
2023-01-05T00:08:25.628Z,6.47
2023-01-05T00:11:05.783Z,7.67
2023-01-05T00:13:45.895Z,6.13
2023-01-05T00:16:33.059Z,4.67
2023-01-05T00:19:13.241Z,2.50
2023-01-05T00:21:53.379Z,6.67
2023-01-05T00:24:14.803Z,8.37
2023-01-05T00:26:36.264Z,4.10
2023-01-05T00:28:57.729Z,5.70
2023-01-05T00:31:19.189Z,7.37
2023-01-05T00:33:40.709Z,4.50
2023-01-05T00:36:02.128Z,5.37
2023-01-05T00:38:23.551Z,6.00
2023-01-05T00:40:44.974Z,7.70
2023-01-05T00:43:06.547Z,5.70
2023-01-05T00:45:28.113Z,7.80
2023-01-05T00:47:52.015Z,4.17
2023-01-05T00:50:16.390Z,5.13
2023-01-05T00:52:37.843Z,4.10
2023-01-05T00:54:59.386Z,4.83
2023-01-05T00:57:20.901Z,4.60
2023-01-05T00:59:43.070Z,8.63
2023-01-05T01:02:04.602Z,7.67
2023-01-05T01:04:26.105Z,5.70
2023-01-05T01:06:47.576Z,9.23
2023-01-05T01:09:09.754Z,5.90
2023-01-05T01:11:31.231Z,6.53
2023-01-05T01:13:52.698Z,6.27
2023-01-05T01:16:15.528Z,7.30
2023-01-05T01:18:37.027Z,6.97
2023-01-05T01:20:58.598Z,4.97
2023-01-05T01:23:20.030Z,6.03
2023-01-05T01:25:41.469Z,3.83
2023-01-05T01:28:02.910Z,5.87
2023-01-05T01:30:24.752Z,6.47
2023-01-05T01:32:46.231Z,5.30
2023-01-05T01:35:08.491Z,5.47
2023-01-05T01:37:29.963Z,6.50
2023-01-05T01:39:51.387Z,9.97
2023-01-05T01:42:14.900Z,7.67
2023-01-05T01:44:51.245Z,6.17
2023-01-05T01:47:16.971Z,6.60
2023-01-05T01:49:38.448Z,3.03
2023-01-05T01:51:59.883Z,4.43
2023-01-05T01:54:21.387Z,7.83
2023-01-05T01:56:52.884Z,8.97
2023-01-05T01:59:14.652Z,8.43
2023-01-05T02:01:36.254Z,3.07
2023-01-05T02:03:59.870Z,8.40
2023-01-05T02:06:21.388Z,8.20
2023-01-05T02:08:43.048Z,5.70
2023-01-05T02:11:41.916Z,4.23
2023-01-05T02:14:34.083Z,7.47
2023-01-05T02:17:23.244Z,5.70
2023-01-05T02:19:56.782Z,5.57
2023-01-05T02:22:35.012Z,5.17
2023-01-05T02:25:14.893Z,5.33
2023-01-05T02:27:47.285Z,5.70
2023-01-05T02:30:27.640Z,6.70
2023-01-05T02:33:00.303Z,10.40
2023-01-05T02:35:52.813Z,5.60
2023-01-05T02:38:46.446Z,5.10
2023-01-05T02:41:15.484Z,7.43
2023-01-05T02:43:36.975Z,6.23
2023-01-05T02:45:58.467Z,8.30
2023-01-05T02:48:19.925Z,14.10
2023-01-05T02:51:01.244Z,7.50
2023-01-05T02:53:31.203Z,18.80
2023-01-05T02:56:34.656Z,11.50
2023-01-05T02:59:01.879Z,6.77
2023-01-05T03:01:30.525Z,10.57
2023-01-05T03:04:04.365Z,10.27
2023-01-05T03:07:02.163Z,8.80
2023-01-05T03:09:28.818Z,10.97
2023-01-05T03:12:28.143Z,9.87
2023-01-05T03:14:56.860Z,6.43
2023-01-05T03:17:29.202Z,8.17
2023-01-05T03:19:51.899Z,10.23
2023-01-05T03:22:47.169Z,11.63
2023-01-05T03:25:29.969Z,7.37
2023-01-05T03:28:10.629Z,10.23
2023-01-05T03:31:11.136Z,12.37
2023-01-05T03:34:40.545Z,12.07
2023-01-05T03:37:10.851Z,9.40
2023-01-05T03:39:35.466Z,9.40
2023-01-05T03:41:58.069Z,6.97
2023-01-05T03:44:19.625Z,11.77
2023-01-05T03:46:41.167Z,9.77
2023-01-05T03:49:02.926Z,9.67
2023-01-05T03:51:24.398Z,12.20
2023-01-05T03:53:45.908Z,13.50
2023-01-05T03:56:07.483Z,10.27
2023-01-05T03:58:28.912Z,13.70
2023-01-05T04:00:50.428Z,5.93
2023-01-05T04:03:12.066Z,8.87
2023-01-05T04:05:33.617Z,11.83
2023-01-05T04:07:55.050Z,7.97
2023-01-05T04:10:16.543Z,12.73
2023-01-05T04:12:37.955Z,8.20
2023-01-05T04:14:59.386Z,8.77
2023-01-05T04:17:20.806Z,9.93
2023-01-05T04:19:42.233Z,11.60
2023-01-05T04:22:03.688Z,10.00
2023-01-05T04:24:25.151Z,10.53
2023-01-05T04:26:46.664Z,12.10
2023-01-05T04:29:10.467Z,11.40
2023-01-05T04:31:31.933Z,7.43
2023-01-05T04:33:53.436Z,9.00
2023-01-05T04:36:14.829Z,10.07
2023-01-05T04:38:36.279Z,13.87
2023-01-05T04:40:57.728Z,13.27
2023-01-05T04:43:20.005Z,9.40
2023-01-05T04:45:41.477Z,18.17
2023-01-05T04:48:02.898Z,12.83
2023-01-05T04:50:24.767Z,13.13
2023-01-05T04:52:46.203Z,11.77
2023-01-05T04:55:07.969Z,18.40
2023-01-05T04:57:29.426Z,13.40
2023-01-05T04:59:50.862Z,13.87
2023-01-05T05:02:12.697Z,12.70
2023-01-05T05:04:34.259Z,13.93
2023-01-05T05:06:55.697Z,12.10
2023-01-05T05:09:17.158Z,10.93
2023-01-05T05:11:38.651Z,12.73
2023-01-05T05:14:00.121Z,9.03
2023-01-05T05:16:21.589Z,12.07
2023-01-05T05:18:43.287Z,9.27
2023-01-05T05:21:05.695Z,11.43
2023-01-05T05:23:27.558Z,10.63
2023-01-05T05:25:53.206Z,9.27
2023-01-05T05:28:14.647Z,14.30
2023-01-05T05:30:38.397Z,16.73
2023-01-05T05:32:59.826Z,11.27
2023-01-05T05:35:21.285Z,14.30
2023-01-05T05:37:42.733Z,9.70
2023-01-05T05:40:04.619Z,11.10
2023-01-05T05:42:26.098Z,11.43
2023-01-05T05:44:47.535Z,19.67
2023-01-05T05:47:08.956Z,11.00
2023-01-05T05:49:30.390Z,13.80
2023-01-05T05:51:51.848Z,11.60
2023-01-05T05:54:13.334Z,11.00
2023-01-05T05:56:34.743Z,13.73
2023-01-05T05:59:01.260Z,13.33
2023-01-05T06:01:23.502Z,14.50
2023-01-05T06:03:45.086Z,11.87
2023-01-05T06:06:06.966Z,8.57
2023-01-05T06:08:29.678Z,9.07
2023-01-05T06:10:51.159Z,15.63
2023-01-05T06:13:12.728Z,13.90
2023-01-05T06:15:34.348Z,12.63
2023-01-05T06:17:55.914Z,15.27
2023-01-05T06:20:17.669Z,12.27
2023-01-05T06:22:39.132Z,10.10
2023-01-05T06:25:00.608Z,10.40
2023-01-05T06:27:22.036Z,11.13
2023-01-05T06:29:43.483Z,16.43
2023-01-05T06:32:05.187Z,10.27
2023-01-05T06:34:26.640Z,7.23
2023-01-05T06:36:48.089Z,10.07
2023-01-05T06:39:09.515Z,9.67
2023-01-05T06:41:31.071Z,13.60
2023-01-05T06:43:52.531Z,10.67
2023-01-05T06:46:13.972Z,8.67
2023-01-05T06:48:35.394Z,8.67
2023-01-05T06:50:56.954Z,7.20
2023-01-05T06:53:18.387Z,12.07
2023-01-05T06:55:39.822Z,12.27
2023-01-05T06:58:01.580Z,13.10
2023-01-05T07:00:23.556Z,9.97
2023-01-05T07:02:44.981Z,12.80
2023-01-05T07:05:07.234Z,14.20
2023-01-05T07:07:28.781Z,9.93
2023-01-05T07:09:50.264Z,13.30
2023-01-05T07:12:11.700Z,13.83
2023-01-05T07:14:33.160Z,9.23
2023-01-05T07:16:54.593Z,15.13
2023-01-05T07:19:16.090Z,12.33
2023-01-05T07:21:37.515Z,13.97
2023-01-05T07:23:58.971Z,11.07
2023-01-05T07:26:20.425Z,11.77
2023-01-05T07:28:41.967Z,9.73
2023-01-05T07:31:03.901Z,13.37
2023-01-05T07:33:25.431Z,12.47
2023-01-05T07:35:47.176Z,12.83
2023-01-05T07:38:09.188Z,13.33
2023-01-05T07:40:30.602Z,9.47
2023-01-05T07:42:53.440Z,7.23
2023-01-05T07:45:14.947Z,13.60
2023-01-05T07:47:39.145Z,14.57
2023-01-05T07:50:00.684Z,7.50
2023-01-05T07:52:22.170Z,12.17
2023-01-05T07:54:43.612Z,14.27
2023-01-05T07:57:05.065Z,10.30
2023-01-05T07:59:26.523Z,10.33
2023-01-05T08:01:48.662Z,7.97
2023-01-05T08:04:11.183Z,6.63
2023-01-05T08:06:34.120Z,6.10
2023-01-05T08:08:56.091Z,7.00
2023-01-05T08:11:21.853Z,6.80
2023-01-05T08:13:59.626Z,5.60
2023-01-05T08:16:21.377Z,10.57
2023-01-05T08:18:42.858Z,11.10
2023-01-05T08:21:05.890Z,12.30
2023-01-05T08:23:28.416Z,10.57
2023-01-05T08:25:49.837Z,10.43
2023-01-05T08:28:11.369Z,7.90
2023-01-05T08:30:32.793Z,9.97
2023-01-05T08:32:54.310Z,12.57
2023-01-05T08:35:15.784Z,7.60
2023-01-05T08:37:37.287Z,6.63
2023-01-05T08:39:59.022Z,9.40
2023-01-05T08:42:22.837Z,12.07
2023-01-05T08:44:44.268Z,10.03
2023-01-05T08:47:05.694Z,9.07
2023-01-05T08:49:27.178Z,10.20
2023-01-05T08:51:48.661Z,9.90
2023-01-05T08:54:10.113Z,8.70
2023-01-05T08:56:38.054Z,10.40
2023-01-05T08:59:00.474Z,8.93
2023-01-05T09:01:22.227Z,10.23
2023-01-05T09:03:44.591Z,11.87
2023-01-05T09:06:09.275Z,9.73
2023-01-05T09:08:32.201Z,9.60
2023-01-05T09:10:53.648Z,11.83
2023-01-05T09:13:15.120Z,9.63
2023-01-05T09:15:36.717Z,10.37
2023-01-05T09:17:58.228Z,12.67
2023-01-05T09:20:19.843Z,12.60
2023-01-05T09:22:41.290Z,13.27
2023-01-05T09:25:03.571Z,13.07
2023-01-05T09:27:25.040Z,9.50
2023-01-05T09:29:46.518Z,9.27
2023-01-05T09:32:08.242Z,11.60
2023-01-05T09:34:29.751Z,14.73
2023-01-05T09:36:51.177Z,9.30
2023-01-05T09:39:12.627Z,13.37
2023-01-05T09:41:47.301Z,14.07
2023-01-05T09:44:30.354Z,9.53
2023-01-05T09:46:55.869Z,9.17
2023-01-05T09:49:22.102Z,7.57
2023-01-05T09:51:44.087Z,11.10
2023-01-05T09:54:05.700Z,11.47
2023-01-05T09:57:07.964Z,8.97
2023-01-05T09:59:30.112Z,10.57
2023-01-05T10:01:54.517Z,11.87
2023-01-05T10:04:25.246Z,12.33
2023-01-05T10:06:57.636Z,8.87
2023-01-05T10:09:23.639Z,12.07
2023-01-05T10:12:15.530Z,14.63
2023-01-05T10:14:41.171Z,11.77
2023-01-05T10:17:39.098Z,12.90
2023-01-05T10:19:44.986Z,14.03
2023-01-05T10:22:21.043Z,11.63
2023-01-05T10:25:11.600Z,11.87
2023-01-05T10:27:56.360Z,13.20
2023-01-05T10:30:24.832Z,12.17
2023-01-05T10:33:22.135Z,7.80
2023-01-05T10:36:05.122Z,8.73
2023-01-05T10:39:07.974Z,12.17
2023-01-05T10:41:44.030Z,8.43
2023-01-05T10:44:32.504Z,6.93
2023-01-05T10:46:54.262Z,10.03
2023-01-05T10:49:25.412Z,7.23
2023-01-05T10:51:54.466Z,6.30
2023-01-05T10:54:36.256Z,9.03
2023-01-05T10:57:35.736Z,8.33
2023-01-05T11:00:04.906Z,8.97
2023-01-05T11:02:35.552Z,9.67
2023-01-05T11:05:22.023Z,8.00
2023-01-05T11:07:50.177Z,9.67
2023-01-05T11:10:34.757Z,8.33
2023-01-05T11:13:16.430Z,7.43
2023-01-05T11:15:44.017Z,8.63
2023-01-05T11:18:07.528Z,10.67
2023-01-05T11:20:29.868Z,7.50
2023-01-05T11:22:51.840Z,9.10
2023-01-05T11:25:22.523Z,14.17
2023-01-05T11:27:43.968Z,9.60
2023-01-05T11:30:20.227Z,9.30
2023-01-05T11:32:43.370Z,10.17
2023-01-05T11:35:05.215Z,9.07
2023-01-05T11:37:31.104Z,16.50
2023-01-05T11:39:59.576Z,6.80
2023-01-05T11:42:25.997Z,10.73
2023-01-05T11:44:51.094Z,10.43
2023-01-05T11:47:21.412Z,10.77
2023-01-05T11:49:43.039Z,8.10
2023-01-05T11:52:23.827Z,10.63
2023-01-05T11:54:45.298Z,7.20
2023-01-05T11:57:18.986Z,8.13
2023-01-05T11:59:40.458Z,10.80
2023-01-05T12:02:51.074Z,9.13
2023-01-05T12:05:21.511Z,10.73
2023-01-05T12:07:53.600Z,8.97
2023-01-05T12:10:32.811Z,10.43
2023-01-05T12:13:06.585Z,5.23
2023-01-05T12:15:33.948Z,11.37
2023-01-05T12:18:27.807Z,9.00
2023-01-05T12:21:10.578Z,14.37
2023-01-05T12:23:59.886Z,12.27
2023-01-05T12:26:59.887Z,10.47
2023-01-05T12:35:41.464Z,10.20
2023-01-05T12:38:08.686Z,12.13
2023-01-05T12:40:52.992Z,10.23
2023-01-05T12:43:31.080Z,9.23
2023-01-05T12:46:13.472Z,5.20
2023-01-05T12:48:42.095Z,8.90
2023-01-05T12:51:14.090Z,22.07
2023-01-05T12:53:35.737Z,41.50
2023-01-05T12:56:02.321Z,11.50
2023-01-05T12:58:26.431Z,10.97
2023-01-05T13:00:49.570Z,6.77
2023-01-05T13:03:18.557Z,7.53
2023-01-05T13:05:49.947Z,7.53
2023-01-05T13:08:34.637Z,10.33
2023-01-05T13:11:09.891Z,9.60
2023-01-05T13:13:51.391Z,11.47
2023-01-05T13:16:20.521Z,8.37
2023-01-05T13:18:50.728Z,9.33
2023-01-05T13:21:15.311Z,10.83
2023-01-05T13:23:41.977Z,11.33
2023-01-05T13:26:10.941Z,7.73
2023-01-05T13:28:34.799Z,12.00
2023-01-05T13:31:20.499Z,9.73
2023-01-05T13:34:30.675Z,12.57
2023-01-05T13:37:10.566Z,11.03
2023-01-05T13:39:44.029Z,9.90
2023-01-05T13:42:43.111Z,11.87
2023-01-05T13:45:19.912Z,11.83
2023-01-05T13:48:25.597Z,13.97
2023-01-05T13:51:40.516Z,10.77
2023-01-05T13:54:19.682Z,9.80
2023-01-05T13:56:41.270Z,10.37
2023-01-05T13:59:12.068Z,16.30
2023-01-05T14:01:46.407Z,12.80
2023-01-05T14:04:32.688Z,16.17
2023-01-05T14:07:01.143Z,17.63
2023-01-05T14:09:42.548Z,13.40
2023-01-05T14:12:15.894Z,11.73
2023-01-05T14:15:08.325Z,15.57
2023-01-05T14:17:55.567Z,18.03
2023-01-05T14:20:35.373Z,21.03
2023-01-05T14:22:57.426Z,11.07
2023-01-05T14:25:37.650Z,13.43
2023-01-05T14:28:19.711Z,18.17
2023-01-05T14:30:41.174Z,14.70
2023-01-05T14:33:05.643Z,18.17
2023-01-05T14:35:37.104Z,14.27
2023-01-05T14:38:00.882Z,16.80
2023-01-05T14:40:22.335Z,19.00
2023-01-05T14:42:47.785Z,15.60
2023-01-05T14:45:22.278Z,13.60
2023-01-05T14:47:49.880Z,14.83
2023-01-05T14:50:27.708Z,14.40
2023-01-05T14:52:58.259Z,15.90
2023-01-05T14:55:39.586Z,16.67
2023-01-05T14:58:05.097Z,20.73
2023-01-05T15:00:37.446Z,16.80
2023-01-05T15:03:13.207Z,15.73
2023-01-05T15:05:37.960Z,17.00
2023-01-05T15:08:34.941Z,18.33
2023-01-05T15:11:26.504Z,20.03
2023-01-05T15:14:32.000Z,16.17
2023-01-05T15:17:25.414Z,16.93
2023-01-05T15:20:24.348Z,16.80
2023-01-05T15:23:16.025Z,22.37
2023-01-05T15:26:22.187Z,14.97
2023-01-05T15:29:06.327Z,15.90
2023-01-05T15:31:30.371Z,17.93
2023-01-05T15:34:14.204Z,16.60
2023-01-05T15:36:49.351Z,17.57
2023-01-05T15:39:26.963Z,16.30
2023-01-05T15:41:48.561Z,16.63
2023-01-05T15:44:16.448Z,21.37
2023-01-05T15:46:37.866Z,17.33
2023-01-05T15:48:59.496Z,16.00
2023-01-05T15:51:30.701Z,16.27
2023-01-05T15:53:59.617Z,16.63
2023-01-05T15:56:41.240Z,15.33
2023-01-05T15:59:17.582Z,23.47
2023-01-05T16:01:39.061Z,21.07
2023-01-05T16:04:09.325Z,17.17
2023-01-05T16:06:31.300Z,19.17
2023-01-05T16:08:55.466Z,17.33
2023-01-05T16:11:26.440Z,18.63
2023-01-05T16:13:53.057Z,19.27
2023-01-05T16:16:49.876Z,18.00
2023-01-05T16:19:11.486Z,19.63
2023-01-05T16:21:44.781Z,14.40
2023-01-05T16:24:35.711Z,15.40
2023-01-05T16:26:58.556Z,23.33
2023-01-05T16:29:29.491Z,19.00
2023-01-05T16:31:55.276Z,19.73
2023-01-05T16:34:19.991Z,15.33
2023-01-05T16:37:02.139Z,13.27
2023-01-05T16:39:24.771Z,16.17
2023-01-05T16:42:06.252Z,18.63
2023-01-05T16:44:33.029Z,14.40
2023-01-05T16:47:07.741Z,16.70
2023-01-05T16:49:38.948Z,20.30
2023-01-05T16:52:08.757Z,19.60
2023-01-05T16:54:39.287Z,14.50
2023-01-05T16:57:02.591Z,15.97
2023-01-05T16:59:40.384Z,19.07
2023-01-05T17:02:02.325Z,17.80
2023-01-05T17:04:23.968Z,17.63
2023-01-05T17:06:48.073Z,21.00
2023-01-05T17:09:20.770Z,14.70
2023-01-05T17:11:42.281Z,18.47
2023-01-05T17:14:06.200Z,12.23
2023-01-05T17:16:27.843Z,15.20
2023-01-05T17:18:49.989Z,19.93
2023-01-05T17:21:16.506Z,17.23
2023-01-05T17:23:46.666Z,15.40
2023-01-05T17:26:11.251Z,19.23
2023-01-05T17:28:32.884Z,20.50
2023-01-05T17:30:54.377Z,16.30
2023-01-05T17:33:15.878Z,15.13
2023-01-05T17:35:37.314Z,15.20
2023-01-05T17:37:58.749Z,17.27
2023-01-05T17:40:21.846Z,13.37
2023-01-05T17:42:43.487Z,16.90
2023-01-05T17:45:05.511Z,15.00
2023-01-05T17:47:26.968Z,15.37
2023-01-05T17:49:48.499Z,15.23
2023-01-05T17:52:12.580Z,13.93
2023-01-05T17:54:35.463Z,15.97
2023-01-05T17:56:56.924Z,14.13
2023-01-05T17:59:18.346Z,13.40
2023-01-05T18:01:39.871Z,15.00
2023-01-05T18:04:01.700Z,13.27
2023-01-05T18:06:23.230Z,17.13
2023-01-05T18:08:44.675Z,16.30
2023-01-05T18:11:07.838Z,9.97
2023-01-05T18:13:29.392Z,15.03
2023-01-05T18:15:52.845Z,14.17
2023-01-05T18:18:15.430Z,13.50
2023-01-05T18:20:39.315Z,16.37
2023-01-05T18:23:00.983Z,11.40
2023-01-05T18:25:22.782Z,22.13
2023-01-05T18:27:44.459Z,11.77
2023-01-05T18:30:07.555Z,12.37
2023-01-05T18:34:51.425Z,14.03
2023-01-05T18:37:21.443Z,8.27
2023-01-05T18:39:44.640Z,13.00
2023-01-05T18:42:06.103Z,10.53
2023-01-05T18:44:27.874Z,12.90
2023-01-05T18:46:49.381Z,9.33
2023-01-05T18:49:12.316Z,11.23
2023-01-05T18:51:34.318Z,12.93
2023-01-05T18:53:55.783Z,14.00
2023-01-05T18:56:17.274Z,20.20
2023-01-05T18:58:38.745Z,13.63
2023-01-05T19:01:00.869Z,12.20
2023-01-05T19:03:22.302Z,10.33
2023-01-05T19:05:44.595Z,10.90
2023-01-05T19:08:07.105Z,10.43
2023-01-05T19:10:30.587Z,14.13
2023-01-05T19:12:52.004Z,14.40
2023-01-05T19:15:13.836Z,13.43
2023-01-05T19:17:35.340Z,15.90
2023-01-05T19:19:57.590Z,12.00
2023-01-05T19:22:19.019Z,11.97
2023-01-05T19:24:40.494Z,13.63
2023-01-05T19:27:01.920Z,17.07
2023-01-05T19:29:24.371Z,14.00
2023-01-05T19:31:47.052Z,17.37
2023-01-05T19:34:09.153Z,12.70
2023-01-05T19:36:35.450Z,14.87
2023-01-05T19:39:01.628Z,12.03
2023-01-05T19:41:24.724Z,11.40
2023-01-05T19:43:50.943Z,15.43
2023-01-05T19:46:14.134Z,13.70
2023-01-05T19:48:37.028Z,14.27
2023-01-05T19:51:00.430Z,12.13
2023-01-05T19:53:21.932Z,14.57
2023-01-05T19:55:43.379Z,13.93
2023-01-05T19:58:04.790Z,14.37
2023-01-05T20:00:26.232Z,15.50
2023-01-05T20:02:47.673Z,14.70
2023-01-05T20:05:09.998Z,12.27
2023-01-05T20:07:31.413Z,12.87
2023-01-05T20:09:53.000Z,13.53
2023-01-05T20:12:15.805Z,10.23
2023-01-05T20:14:37.435Z,15.77
2023-01-05T20:17:04.189Z,16.57
2023-01-05T20:19:28.021Z,15.43
2023-01-05T20:21:50.811Z,14.77
2023-01-05T20:24:15.516Z,16.33
2023-01-05T20:26:37.027Z,15.37
2023-01-05T20:29:01.594Z,16.73
2023-01-05T20:31:26.848Z,13.57
2023-01-05T20:33:48.653Z,17.80
2023-01-05T20:36:10.167Z,20.17
2023-01-05T20:38:32.314Z,17.70
2023-01-05T20:40:54.009Z,20.37
2023-01-05T20:43:15.535Z,18.97
2023-01-05T20:45:36.961Z,21.43
2023-01-05T20:47:58.383Z,22.23
2023-01-05T20:50:19.831Z,19.07
2023-01-05T20:52:41.289Z,14.47
2023-01-05T20:55:02.751Z,16.70
2023-01-05T20:57:24.269Z,19.73
2023-01-05T20:59:45.716Z,19.23
2023-01-05T21:02:21.913Z,25.13
2023-01-05T21:04:44.282Z,18.63
2023-01-05T21:07:05.700Z,19.03
2023-01-05T21:09:29.488Z,16.53
2023-01-05T21:11:51.603Z,17.13
2023-01-05T21:14:14.734Z,15.07
2023-01-05T21:16:43.013Z,16.10
2023-01-05T21:19:06.012Z,19.67
2023-01-05T21:21:28.782Z,18.30
2023-01-05T21:23:51.648Z,13.10
2023-01-05T21:26:15.586Z,13.33
2023-01-05T21:28:38.286Z,18.73
2023-01-05T21:31:08.457Z,15.97
2023-01-05T21:33:30.072Z,17.77
2023-01-05T21:35:56.134Z,15.27
2023-01-05T21:38:17.560Z,12.80
2023-01-05T21:40:39.007Z,17.73
2023-01-05T21:43:02.380Z,16.10
2023-01-05T21:45:25.236Z,18.10
2023-01-05T21:47:52.919Z,15.63
2023-01-05T21:50:34.327Z,22.37
2023-01-05T21:53:14.420Z,21.53
2023-01-05T21:55:54.594Z,19.73
2023-01-05T21:58:16.001Z,18.13
2023-01-05T22:00:37.455Z,14.73
2023-01-05T22:02:58.903Z,15.47
2023-01-05T22:05:20.617Z,12.37
2023-01-05T22:07:42.337Z,17.63
2023-01-05T22:10:05.148Z,21.70
2023-01-05T22:12:26.613Z,17.53
2023-01-05T22:14:48.061Z,18.73
2023-01-05T22:17:10.667Z,17.47
2023-01-05T22:19:32.200Z,14.03
2023-01-05T22:21:53.600Z,15.70
2023-01-05T22:24:15.188Z,14.57
2023-01-05T22:26:36.620Z,14.73
2023-01-05T22:28:58.144Z,17.63
2023-01-05T22:31:25.097Z,16.43
2023-01-05T22:33:49.055Z,17.87
2023-01-05T22:36:12.374Z,15.87
2023-01-05T22:38:35.944Z,14.90
2023-01-05T22:40:58.925Z,14.57
2023-01-05T22:43:20.374Z,21.43
2023-01-05T22:45:41.820Z,18.87
2023-01-05T22:48:03.355Z,14.27
2023-01-05T22:50:24.782Z,15.30
2023-01-05T22:52:46.197Z,19.33
2023-01-05T22:55:08.049Z,15.53
2023-01-05T22:57:29.470Z,11.53
2023-01-05T22:59:50.927Z,15.40
2023-01-05T23:02:12.456Z,16.57
2023-01-05T23:04:33.903Z,15.57
2023-01-05T23:06:55.338Z,16.20
2023-01-05T23:09:17.853Z,16.77
2023-01-05T23:11:41.246Z,15.43
2023-01-05T23:14:04.885Z,13.73
2023-01-05T23:16:26.854Z,17.43
2023-01-05T23:18:49.727Z,13.77
2023-01-05T23:21:13.703Z,15.40
2023-01-05T23:23:35.911Z,18.37
2023-01-05T23:25:57.621Z,21.33
2023-01-05T23:28:20.923Z,12.13
2023-01-05T23:30:42.359Z,11.30
2023-01-05T23:33:03.831Z,19.20
2023-01-05T23:35:25.239Z,15.97
2023-01-05T23:37:46.659Z,20.23
2023-01-05T23:40:08.632Z,15.70
2023-01-05T23:42:46.506Z,15.73
2023-01-05T23:45:09.083Z,13.13
2023-01-05T23:47:30.536Z,11.37
2023-01-05T23:49:51.955Z,12.93
2023-01-05T23:52:13.388Z,17.43
2023-01-05T23:54:36.985Z,12.23
2023-01-05T23:56:58.412Z,13.30
2023-01-05T23:59:19.872Z,9.53
